sensor_id;sensor_type;location;lat;lon;timestamp;P1;durP1;ratioP1;P2;durP2;ratioP2
22284;SDS011;11311;52.192;20.900;2023-05-17T00:00:38;11.35;;;8.75;;
22284;SDS011;11311;52.192;20.900;2023-05-17T00:03:07;12.60;;;9.68;;
22284;SDS011;11311;52.192;20.900;2023-05-17T00:05:36;12.30;;;10.38;;
22284;SDS011;11311;52.192;20.900;2023-05-17T00:08:07;11.60;;;9.60;;
22284;SDS011;11311;52.192;20.900;2023-05-17T00:10:36;10.80;;;9.38;;
22284;SDS011;11311;52.192;20.900;2023-05-17T00:13:05;12.00;;;9.32;;
22284;SDS011;11311;52.192;20.900;2023-05-17T00:15:34;12.65;;;10.18;;
22284;SDS011;11311;52.192;20.900;2023-05-17T00:18:03;15.77;;;11.82;;
22284;SDS011;11311;52.192;20.900;2023-05-17T00:20:32;16.73;;;12.60;;
22284;SDS011;11311;52.192;20.900;2023-05-17T00:23:01;16.70;;;14.10;;
22284;SDS011;11311;52.192;20.900;2023-05-17T00:25:32;20.30;;;15.75;;
22284;SDS011;11311;52.192;20.900;2023-05-17T00:28:01;22.85;;;16.00;;
22284;SDS011;11311;52.192;20.900;2023-05-17T00:30:29;22.15;;;15.93;;
22284;SDS011;11311;52.192;20.900;2023-05-17T00:32:58;17.00;;;15.20;;
22284;SDS011;11311;52.192;20.900;2023-05-17T00:35:28;19.90;;;15.65;;
22284;SDS011;11311;52.192;20.900;2023-05-17T00:37:57;16.95;;;14.50;;
22284;SDS011;11311;52.192;20.900;2023-05-17T00:40:25;17.23;;;14.35;;
22284;SDS011;11311;52.192;20.900;2023-05-17T00:42:56;15.57;;;13.95;;
22284;SDS011;11311;52.192;20.900;2023-05-17T00:47:55;16.83;;;14.30;;
22284;SDS011;11311;52.192;20.900;2023-05-17T00:50:25;17.65;;;15.88;;
22284;SDS011;11311;52.192;20.900;2023-05-17T00:52:55;18.38;;;15.10;;
22284;SDS011;11311;52.192;20.900;2023-05-17T00:55:24;16.20;;;14.57;;
22284;SDS011;11311;52.192;20.900;2023-05-17T00:57:55;17.33;;;15.63;;
22284;SDS011;11311;52.192;20.900;2023-05-17T01:02:53;21.00;;;17.67;;
22284;SDS011;11311;52.192;20.900;2023-05-17T01:05:22;16.98;;;15.40;;
22284;SDS011;11311;52.192;20.900;2023-05-17T01:07:55;19.10;;;17.20;;
22284;SDS011;11311;52.192;20.900;2023-05-17T01:10:25;19.52;;;17.50;;
22284;SDS011;11311;52.192;20.900;2023-05-17T01:13:01;18.85;;;16.52;;
22284;SDS011;11311;52.192;20.900;2023-05-17T01:15:34;18.30;;;16.55;;
22284;SDS011;11311;52.192;20.900;2023-05-17T01:18:07;22.13;;;17.17;;
22284;SDS011;11311;52.192;20.900;2023-05-17T01:20:42;18.10;;;16.25;;
22284;SDS011;11311;52.192;20.900;2023-05-17T01:23:23;16.73;;;15.00;;
22284;SDS011;11311;52.192;20.900;2023-05-17T01:26:00;18.95;;;16.45;;
22284;SDS011;11311;52.192;20.900;2023-05-17T01:28:36;17.90;;;16.05;;
22284;SDS011;11311;52.192;20.900;2023-05-17T01:31:06;20.85;;;15.90;;
22284;SDS011;11311;52.192;20.900;2023-05-17T01:33:36;16.08;;;14.48;;
22284;SDS011;11311;52.192;20.900;2023-05-17T01:36:07;17.30;;;13.85;;
22284;SDS011;11311;52.192;20.900;2023-05-17T01:38:36;16.88;;;15.25;;
22284;SDS011;11311;52.192;20.900;2023-05-17T01:41:10;18.52;;;15.27;;
22284;SDS011;11311;52.192;20.900;2023-05-17T01:43:45;16.67;;;15.18;;
22284;SDS011;11311;52.192;20.900;2023-05-17T01:46:18;17.40;;;15.70;;
22284;SDS011;11311;52.192;20.900;2023-05-17T01:48:51;17.77;;;16.10;;
22284;SDS011;11311;52.192;20.900;2023-05-17T01:51:24;17.02;;;15.43;;
22284;SDS011;11311;52.192;20.900;2023-05-17T01:53:56;16.38;;;14.15;;
22284;SDS011;11311;52.192;20.900;2023-05-17T01:56:31;18.40;;;15.75;;
22284;SDS011;11311;52.192;20.900;2023-05-17T01:59:03;18.67;;;15.55;;
22284;SDS011;11311;52.192;20.900;2023-05-17T02:01:33;16.48;;;14.93;;
22284;SDS011;11311;52.192;20.900;2023-05-17T02:04:03;17.50;;;15.90;;
22284;SDS011;11311;52.192;20.900;2023-05-17T02:06:32;17.13;;;15.50;;
22284;SDS011;11311;52.192;20.900;2023-05-17T02:09:01;17.73;;;15.57;;
22284;SDS011;11311;52.192;20.900;2023-05-17T02:11:30;18.65;;;16.75;;
22284;SDS011;11311;52.192;20.900;2023-05-17T02:13:59;20.67;;;17.30;;
22284;SDS011;11311;52.192;20.900;2023-05-17T02:16:29;18.15;;;16.40;;
22284;SDS011;11311;52.192;20.900;2023-05-17T02:18:58;17.70;;;15.95;;
22284;SDS011;11311;52.192;20.900;2023-05-17T02:21:27;17.70;;;16.00;;
22284;SDS011;11311;52.192;20.900;2023-05-17T02:23:56;18.80;;;16.92;;
22284;SDS011;11311;52.192;20.900;2023-05-17T02:26:25;19.33;;;17.50;;
22284;SDS011;11311;52.192;20.900;2023-05-17T02:28:55;20.23;;;16.73;;
22284;SDS011;11311;52.192;20.900;2023-05-17T02:31:23;21.65;;;19.25;;
22284;SDS011;11311;52.192;20.900;2023-05-17T02:33:54;23.63;;;20.65;;
22284;SDS011;11311;52.192;20.900;2023-05-17T02:36:23;21.77;;;19.77;;
22284;SDS011;11311;52.192;20.900;2023-05-17T02:38:52;22.50;;;20.25;;
22284;SDS011;11311;52.192;20.900;2023-05-17T02:41:21;21.45;;;19.55;;
22284;SDS011;11311;52.192;20.900;2023-05-17T02:43:50;20.52;;;18.65;;
22284;SDS011;11311;52.192;20.900;2023-05-17T02:46:19;24.40;;;21.80;;
22284;SDS011;11311;52.192;20.900;2023-05-17T02:48:48;22.87;;;20.63;;
22284;SDS011;11311;52.192;20.900;2023-05-17T02:51:19;22.98;;;20.77;;
22284;SDS011;11311;52.192;20.900;2023-05-17T02:56:17;23.65;;;21.40;;
22284;SDS011;11311;52.192;20.900;2023-05-17T02:58:46;23.27;;;21.02;;
22284;SDS011;11311;52.192;20.900;2023-05-17T03:01:15;21.95;;;19.85;;
22284;SDS011;11311;52.192;20.900;2023-05-17T03:03:44;22.63;;;20.63;;
22284;SDS011;11311;52.192;20.900;2023-05-17T03:06:14;24.80;;;22.42;;
22284;SDS011;11311;52.192;20.900;2023-05-17T03:08:44;21.88;;;19.83;;
22284;SDS011;11311;52.192;20.900;2023-05-17T03:13:41;20.70;;;18.83;;
22284;SDS011;11311;52.192;20.900;2023-05-17T03:16:12;23.05;;;20.83;;
22284;SDS011;11311;52.192;20.900;2023-05-17T03:18:41;22.33;;;20.33;;
22284;SDS011;11311;52.192;20.900;2023-05-17T03:21:11;22.80;;;20.40;;
22284;SDS011;11311;52.192;20.900;2023-05-17T03:23:41;23.95;;;21.45;;
22284;SDS011;11311;52.192;20.900;2023-05-17T03:26:11;25.30;;;22.65;;
22284;SDS011;11311;52.192;20.900;2023-05-17T03:28:46;24.30;;;22.05;;
22284;SDS011;11311;52.192;20.900;2023-05-17T03:31:16;23.23;;;21.02;;
22284;SDS011;11311;52.192;20.900;2023-05-17T03:33:46;24.65;;;22.42;;
22284;SDS011;11311;52.192;20.900;2023-05-17T03:36:16;26.02;;;23.48;;
22284;SDS011;11311;52.192;20.900;2023-05-17T03:38:45;24.63;;;22.13;;
22284;SDS011;11311;52.192;20.900;2023-05-17T03:41:15;23.15;;;20.75;;
22284;SDS011;11311;52.192;20.900;2023-05-17T03:43:44;23.02;;;20.85;;
22284;SDS011;11311;52.192;20.900;2023-05-17T03:48:43;20.00;;;17.98;;
22284;SDS011;11311;52.192;20.900;2023-05-17T03:51:12;20.63;;;18.42;;
22284;SDS011;11311;52.192;20.900;2023-05-17T03:53:43;20.55;;;18.58;;
22284;SDS011;11311;52.192;20.900;2023-05-17T03:56:11;20.00;;;18.05;;
22284;SDS011;11311;52.192;20.900;2023-05-17T03:58:43;23.35;;;20.13;;
22284;SDS011;11311;52.192;20.900;2023-05-17T04:01:11;20.02;;;18.02;;
22284;SDS011;11311;52.192;20.900;2023-05-17T04:03:40;21.00;;;18.88;;
22284;SDS011;11311;52.192;20.900;2023-05-17T04:06:09;20.10;;;18.25;;
22284;SDS011;11311;52.192;20.900;2023-05-17T04:08:39;19.63;;;17.80;;
22284;SDS011;11311;52.192;20.900;2023-05-17T04:11:08;20.88;;;18.77;;
22284;SDS011;11311;52.192;20.900;2023-05-17T04:13:39;18.67;;;16.88;;
22284;SDS011;11311;52.192;20.900;2023-05-17T04:16:10;18.52;;;16.63;;
22284;SDS011;11311;52.192;20.900;2023-05-17T04:18:41;16.60;;;15.23;;
22284;SDS011;11311;52.192;20.900;2023-05-17T04:21:12;18.48;;;16.67;;
22284;SDS011;11311;52.192;20.900;2023-05-17T04:23:41;18.65;;;16.95;;
22284;SDS011;11311;52.192;20.900;2023-05-17T04:26:10;15.85;;;14.35;;
22284;SDS011;11311;52.192;20.900;2023-05-17T04:28:38;18.77;;;16.27;;
22284;SDS011;11311;52.192;20.900;2023-05-17T04:31:12;14.85;;;13.55;;
22284;SDS011;11311;52.192;20.900;2023-05-17T04:33:43;15.40;;;14.13;;
22284;SDS011;11311;52.192;20.900;2023-05-17T04:36:13;17.02;;;15.55;;
22284;SDS011;11311;52.192;20.900;2023-05-17T04:38:42;16.15;;;14.75;;
22284;SDS011;11311;52.192;20.900;2023-05-17T04:41:16;15.88;;;14.48;;
22284;SDS011;11311;52.192;20.900;2023-05-17T04:43:44;15.50;;;14.10;;
22284;SDS011;11311;52.192;20.900;2023-05-17T04:46:21;14.63;;;13.43;;
22284;SDS011;11311;52.192;20.900;2023-05-17T04:48:50;14.75;;;13.45;;
22284;SDS011;11311;52.192;20.900;2023-05-17T04:51:19;13.80;;;12.50;;
22284;SDS011;11311;52.192;20.900;2023-05-17T04:53:50;13.38;;;12.27;;
22284;SDS011;11311;52.192;20.900;2023-05-17T04:56:20;12.77;;;11.75;;
22284;SDS011;11311;52.192;20.900;2023-05-17T04:58:50;16.83;;;14.45;;
22284;SDS011;11311;52.192;20.900;2023-05-17T05:01:21;14.82;;;13.52;;
22284;SDS011;11311;52.192;20.900;2023-05-17T05:03:50;15.68;;;14.38;;
22284;SDS011;11311;52.192;20.900;2023-05-17T05:06:20;14.68;;;13.32;;
22284;SDS011;11311;52.192;20.900;2023-05-17T05:08:49;15.32;;;13.73;;
22284;SDS011;11311;52.192;20.900;2023-05-17T05:11:19;14.00;;;12.68;;
22284;SDS011;11311;52.192;20.900;2023-05-17T05:13:48;13.27;;;12.10;;
22284;SDS011;11311;52.192;20.900;2023-05-17T05:16:17;12.45;;;11.35;;
22284;SDS011;11311;52.192;20.900;2023-05-17T05:18:47;13.13;;;12.00;;
22284;SDS011;11311;52.192;20.900;2023-05-17T05:21:17;12.27;;;11.07;;
22284;SDS011;11311;52.192;20.900;2023-05-17T05:23:46;13.23;;;12.13;;
22284;SDS011;11311;52.192;20.900;2023-05-17T05:26:15;10.68;;;9.68;;
22284;SDS011;11311;52.192;20.900;2023-05-17T05:28:44;15.25;;;13.85;;
22284;SDS011;11311;52.192;20.900;2023-05-17T05:31:13;11.98;;;10.82;;
22284;SDS011;11311;52.192;20.900;2023-05-17T05:33:49;11.15;;;10.05;;
22284;SDS011;11311;52.192;20.900;2023-05-17T05:36:18;11.85;;;10.75;;
22284;SDS011;11311;52.192;20.900;2023-05-17T05:38:47;11.95;;;10.95;;
22284;SDS011;11311;52.192;20.900;2023-05-17T05:41:20;12.25;;;11.13;;
22284;SDS011;11311;52.192;20.900;2023-05-17T05:43:49;12.65;;;11.32;;
22284;SDS011;11311;52.192;20.900;2023-05-17T05:46:19;11.48;;;10.43;;
22284;SDS011;11311;52.192;20.900;2023-05-17T05:48:50;11.20;;;10.23;;
22284;SDS011;11311;52.192;20.900;2023-05-17T05:51:20;14.85;;;10.60;;
22284;SDS011;11311;52.192;20.900;2023-05-17T05:53:50;9.85;;;8.98;;
22284;SDS011;11311;52.192;20.900;2023-05-17T05:56:19;9.88;;;8.98;;
22284;SDS011;11311;52.192;20.900;2023-05-17T05:58:50;8.82;;;8.13;;
22284;SDS011;11311;52.192;20.900;2023-05-17T06:01:19;9.18;;;8.38;;
22284;SDS011;11311;52.192;20.900;2023-05-17T06:03:48;8.95;;;7.65;;
22284;SDS011;11311;52.192;20.900;2023-05-17T06:06:19;8.55;;;7.85;;
22284;SDS011;11311;52.192;20.900;2023-05-17T06:08:48;10.10;;;9.07;;
22284;SDS011;11311;52.192;20.900;2023-05-17T06:11:17;10.65;;;8.75;;
22284;SDS011;11311;52.192;20.900;2023-05-17T06:13:46;9.85;;;8.95;;
22284;SDS011;11311;52.192;20.900;2023-05-17T06:16:16;9.10;;;8.43;;
22284;SDS011;11311;52.192;20.900;2023-05-17T06:18:45;10.30;;;8.88;;
22284;SDS011;11311;52.192;20.900;2023-05-17T06:21:18;9.60;;;8.70;;
22284;SDS011;11311;52.192;20.900;2023-05-17T06:26:16;10.30;;;9.32;;
22284;SDS011;11311;52.192;20.900;2023-05-17T06:28:44;11.32;;;9.05;;
22284;SDS011;11311;52.192;20.900;2023-05-17T06:31:13;9.43;;;8.52;;
22284;SDS011;11311;52.192;20.900;2023-05-17T06:36:12;10.40;;;9.35;;
22284;SDS011;11311;52.192;20.900;2023-05-17T06:38:43;10.15;;;9.15;;
22284;SDS011;11311;52.192;20.900;2023-05-17T06:41:12;13.77;;;10.30;;
22284;SDS011;11311;52.192;20.900;2023-05-17T06:43:41;11.13;;;9.25;;
22284;SDS011;11311;52.192;20.900;2023-05-17T06:46:10;10.35;;;9.20;;
22284;SDS011;11311;52.192;20.900;2023-05-17T06:48:39;13.95;;;10.35;;
22284;SDS011;11311;52.192;20.900;2023-05-17T06:51:08;14.95;;;10.23;;
22284;SDS011;11311;52.192;20.900;2023-05-17T06:53:37;12.18;;;8.13;;
22284;SDS011;11311;52.192;20.900;2023-05-17T06:56:07;9.82;;;8.82;;
22284;SDS011;11311;52.192;20.900;2023-05-17T06:58:36;10.38;;;9.35;;
22284;SDS011;11311;52.192;20.900;2023-05-17T07:01:05;9.63;;;8.80;;
22284;SDS011;11311;52.192;20.900;2023-05-17T07:03:34;10.75;;;9.75;;
22284;SDS011;11311;52.192;20.900;2023-05-17T07:06:03;11.40;;;10.32;;
22284;SDS011;11311;52.192;20.900;2023-05-17T07:08:32;11.20;;;10.30;;
22284;SDS011;11311;52.192;20.900;2023-05-17T07:11:01;11.25;;;10.25;;
22284;SDS011;11311;52.192;20.900;2023-05-17T07:13:32;10.30;;;9.35;;
22284;SDS011;11311;52.192;20.900;2023-05-17T07:18:30;10.50;;;9.60;;
22284;SDS011;11311;52.192;20.900;2023-05-17T07:20:59;10.68;;;9.25;;
22284;SDS011;11311;52.192;20.900;2023-05-17T07:23:28;11.23;;;10.23;;
22284;SDS011;11311;52.192;20.900;2023-05-17T07:25:57;11.10;;;10.20;;
22284;SDS011;11311;52.192;20.900;2023-05-17T07:28:25;11.15;;;10.25;;
22284;SDS011;11311;52.192;20.900;2023-05-17T07:30:56;10.70;;;9.65;;
22284;SDS011;11311;52.192;20.900;2023-05-17T07:35:53;10.20;;;9.30;;
22284;SDS011;11311;52.192;20.900;2023-05-17T07:38:23;9.77;;;8.98;;
22284;SDS011;11311;52.192;20.900;2023-05-17T07:40:52;9.80;;;8.75;;
22284;SDS011;11311;52.192;20.900;2023-05-17T07:43:20;10.15;;;9.23;;
22284;SDS011;11311;52.192;20.900;2023-05-17T07:45:50;10.45;;;9.13;;
22284;SDS011;11311;52.192;20.900;2023-05-17T07:48:20;10.30;;;9.40;;
22284;SDS011;11311;52.192;20.900;2023-05-17T07:50:49;8.70;;;7.90;;
22284;SDS011;11311;52.192;20.900;2023-05-17T07:53:18;12.13;;;10.00;;
22284;SDS011;11311;52.192;20.900;2023-05-17T07:55:47;11.23;;;9.40;;
22284;SDS011;11311;52.192;20.900;2023-05-17T07:58:16;8.80;;;8.10;;
22284;SDS011;11311;52.192;20.900;2023-05-17T08:00:45;8.85;;;8.15;;
22284;SDS011;11311;52.192;20.900;2023-05-17T08:03:15;7.80;;;7.00;;
22284;SDS011;11311;52.192;20.900;2023-05-17T08:05:45;8.30;;;7.70;;
22284;SDS011;11311;52.192;20.900;2023-05-17T08:08:15;9.27;;;7.22;;
22284;SDS011;11311;52.192;20.900;2023-05-17T08:10:43;7.97;;;7.28;;
22284;SDS011;11311;52.192;20.900;2023-05-17T08:13:12;8.65;;;7.82;;
22284;SDS011;11311;52.192;20.900;2023-05-17T08:15:41;7.93;;;7.32;;
22284;SDS011;11311;52.192;20.900;2023-05-17T08:18:10;8.95;;;7.15;;
22284;SDS011;11311;52.192;20.900;2023-05-17T08:20:39;6.50;;;5.90;;
22284;SDS011;11311;52.192;20.900;2023-05-17T08:23:11;5.93;;;5.43;;
22284;SDS011;11311;52.192;20.900;2023-05-17T08:25:42;5.63;;;5.22;;
22284;SDS011;11311;52.192;20.900;2023-05-17T08:28:12;6.22;;;5.72;;
22284;SDS011;11311;52.192;20.900;2023-05-17T08:30:41;6.32;;;5.82;;
22284;SDS011;11311;52.192;20.900;2023-05-17T08:33:10;7.57;;;6.88;;
22284;SDS011;11311;52.192;20.900;2023-05-17T08:35:39;7.30;;;6.60;;
22284;SDS011;11311;52.192;20.900;2023-05-17T08:38:08;7.68;;;6.43;;
22284;SDS011;11311;52.192;20.900;2023-05-17T08:40:38;5.95;;;5.35;;
22284;SDS011;11311;52.192;20.900;2023-05-17T08:43:07;6.88;;;5.38;;
22284;SDS011;11311;52.192;20.900;2023-05-17T08:45:38;6.10;;;4.45;;
22284;SDS011;11311;52.192;20.900;2023-05-17T08:48:07;5.10;;;4.75;;
22284;SDS011;11311;52.192;20.900;2023-05-17T08:50:37;5.93;;;5.15;;
22284;SDS011;11311;52.192;20.900;2023-05-17T08:53:08;6.60;;;5.05;;
22284;SDS011;11311;52.192;20.900;2023-05-17T08:55:39;6.00;;;5.40;;
22284;SDS011;11311;52.192;20.900;2023-05-17T08:58:09;8.38;;;7.32;;
22284;SDS011;11311;52.192;20.900;2023-05-17T09:00:39;7.00;;;6.50;;
22284;SDS011;11311;52.192;20.900;2023-05-17T09:03:08;8.02;;;7.32;;
22284;SDS011;11311;52.192;20.900;2023-05-17T09:05:41;6.90;;;6.30;;
22284;SDS011;11311;52.192;20.900;2023-05-17T09:08:11;7.47;;;6.78;;
22284;SDS011;11311;52.192;20.900;2023-05-17T09:10:41;6.45;;;6.03;;
22284;SDS011;11311;52.192;20.900;2023-05-17T09:13:10;6.45;;;5.75;;
22284;SDS011;11311;52.192;20.900;2023-05-17T09:15:41;9.63;;;6.68;;
22284;SDS011;11311;52.192;20.900;2023-05-17T09:18:10;9.20;;;8.50;;
22284;SDS011;11311;52.192;20.900;2023-05-17T09:20:46;8.43;;;7.72;;
22284;SDS011;11311;52.192;20.900;2023-05-17T09:23:19;8.90;;;8.10;;
22284;SDS011;11311;52.192;20.900;2023-05-17T09:28:18;9.57;;;8.68;;
22284;SDS011;11311;52.192;20.900;2023-05-17T09:30:47;8.07;;;7.35;;
22284;SDS011;11311;52.192;20.900;2023-05-17T09:33:16;10.52;;;9.43;;
22284;SDS011;11311;52.192;20.900;2023-05-17T09:35:48;10.90;;;10.00;;
22284;SDS011;11311;52.192;20.900;2023-05-17T09:38:17;12.88;;;10.07;;
22284;SDS011;11311;52.192;20.900;2023-05-17T09:40:50;10.65;;;9.65;;
22284;SDS011;11311;52.192;20.900;2023-05-17T09:45:54;11.05;;;9.82;;
22284;SDS011;11311;52.192;20.900;2023-05-17T09:48:24;11.07;;;10.00;;
22284;SDS011;11311;52.192;20.900;2023-05-17T09:50:53;11.55;;;10.45;;
22284;SDS011;11311;52.192;20.900;2023-05-17T09:53:23;12.05;;;9.75;;
22284;SDS011;11311;52.192;20.900;2023-05-17T09:55:54;11.25;;;10.10;;
22284;SDS011;11311;52.192;20.900;2023-05-17T09:58:24;12.52;;;11.23;;
22284;SDS011;11311;52.192;20.900;2023-05-17T10:03:29;12.43;;;11.23;;
22284;SDS011;11311;52.192;20.900;2023-05-17T10:05:59;14.07;;;11.65;;
22284;SDS011;11311;52.192;20.900;2023-05-17T10:08:30;15.18;;;11.73;;
22284;SDS011;11311;52.192;20.900;2023-05-17T10:11:02;13.77;;;12.10;;
22284;SDS011;11311;52.192;20.900;2023-05-17T10:13:35;15.32;;;10.60;;
22284;SDS011;11311;52.192;20.900;2023-05-17T10:16:06;13.30;;;10.57;;
22284;SDS011;11311;52.192;20.900;2023-05-17T10:18:35;14.40;;;11.07;;
22284;SDS011;11311;52.192;20.900;2023-05-17T10:21:06;17.02;;;10.95;;
22284;SDS011;11311;52.192;20.900;2023-05-17T10:23:36;14.68;;;11.32;;
22284;SDS011;11311;52.192;20.900;2023-05-17T10:26:08;12.23;;;10.88;;
22284;SDS011;11311;52.192;20.900;2023-05-17T10:28:37;16.40;;;10.07;;
22284;SDS011;11311;52.192;20.900;2023-05-17T10:31:07;14.50;;;11.95;;
22284;SDS011;11311;52.192;20.900;2023-05-17T10:33:36;14.60;;;11.45;;
22284;SDS011;11311;52.192;20.900;2023-05-17T10:36:07;11.45;;;10.25;;
22284;SDS011;11311;52.192;20.900;2023-05-17T10:38:36;16.73;;;12.07;;
22284;SDS011;11311;52.192;20.900;2023-05-17T10:41:10;15.88;;;11.75;;
22284;SDS011;11311;52.192;20.900;2023-05-17T10:43:40;14.07;;;11.27;;
22284;SDS011;11311;52.192;20.900;2023-05-17T10:46:13;16.83;;;11.88;;
22284;SDS011;11311;52.192;20.900;2023-05-17T10:48:43;12.38;;;10.95;;
22284;SDS011;11311;52.192;20.900;2023-05-17T10:51:12;12.50;;;10.52;;
22284;SDS011;11311;52.192;20.900;2023-05-17T10:56:33;12.70;;;10.15;;
22284;SDS011;11311;52.192;20.900;2023-05-17T10:59:15;12.15;;;10.18;;
22284;SDS011;11311;52.192;20.900;2023-05-17T11:01:49;14.30;;;10.23;;
22284;SDS011;11311;52.192;20.900;2023-05-17T11:04:21;13.90;;;9.70;;
22284;SDS011;11311;52.192;20.900;2023-05-17T11:06:53;11.07;;;9.77;;
22284;SDS011;11311;52.192;20.900;2023-05-17T11:09:23;14.82;;;9.02;;
22284;SDS011;11311;52.192;20.900;2023-05-17T11:12:06;19.55;;;8.98;;
22284;SDS011;11311;52.192;20.900;2023-05-17T11:14:46;11.77;;;8.35;;
22284;SDS011;11311;52.192;20.900;2023-05-17T11:17:20;11.25;;;7.97;;
22284;SDS011;11311;52.192;20.900;2023-05-17T11:19:54;13.70;;;7.88;;
22284;SDS011;11311;52.192;20.900;2023-05-17T11:22:25;9.88;;;5.80;;
22284;SDS011;11311;52.192;20.900;2023-05-17T11:24:55;9.38;;;5.82;;
22284;SDS011;11311;52.192;20.900;2023-05-17T11:29:55;13.13;;;6.47;;
22284;SDS011;11311;52.192;20.900;2023-05-17T11:32:26;11.50;;;7.00;;
22284;SDS011;11311;52.192;20.900;2023-05-17T11:34:56;13.40;;;6.78;;
22284;SDS011;11311;52.192;20.900;2023-05-17T11:37:27;13.02;;;6.85;;
22284;SDS011;11311;52.192;20.900;2023-05-17T11:40:00;9.10;;;5.55;;
22284;SDS011;11311;52.192;20.900;2023-05-17T11:42:33;13.23;;;6.82;;
22284;SDS011;11311;52.192;20.900;2023-05-17T11:45:03;12.68;;;6.63;;
22284;SDS011;11311;52.192;20.900;2023-05-17T11:47:33;11.90;;;6.40;;
22284;SDS011;11311;52.192;20.900;2023-05-17T11:50:06;13.80;;;6.25;;
22284;SDS011;11311;52.192;20.900;2023-05-17T11:52:36;9.73;;;6.32;;
22284;SDS011;11311;52.192;20.900;2023-05-17T11:55:08;11.52;;;7.00;;
22284;SDS011;11311;52.192;20.900;2023-05-17T11:57:43;11.40;;;6.50;;
22284;SDS011;11311;52.192;20.900;2023-05-17T12:00:13;13.23;;;7.22;;
22284;SDS011;11311;52.192;20.900;2023-05-17T12:02:43;15.55;;;7.90;;
22284;SDS011;11311;52.192;20.900;2023-05-17T12:05:18;11.30;;;7.03;;
22284;SDS011;11311;52.192;20.900;2023-05-17T12:07:47;16.10;;;7.97;;
22284;SDS011;11311;52.192;20.900;2023-05-17T12:10:19;12.43;;;6.32;;
22284;SDS011;11311;52.192;20.900;2023-05-17T12:12:49;19.63;;;8.88;;
22284;SDS011;11311;52.192;20.900;2023-05-17T12:17:47;16.17;;;7.53;;
22284;SDS011;11311;52.192;20.900;2023-05-17T12:20:17;16.88;;;6.75;;
22284;SDS011;11311;52.192;20.900;2023-05-17T12:22:50;13.43;;;7.20;;
22284;SDS011;11311;52.192;20.900;2023-05-17T12:25:20;16.23;;;7.07;;
22284;SDS011;11311;52.192;20.900;2023-05-17T12:27:53;17.65;;;7.25;;
22284;SDS011;11311;52.192;20.900;2023-05-17T12:30:23;13.70;;;6.97;;
22284;SDS011;11311;52.192;20.900;2023-05-17T12:32:53;12.03;;;7.40;;
22284;SDS011;11311;52.192;20.900;2023-05-17T12:35:22;13.73;;;7.50;;
22284;SDS011;11311;52.192;20.900;2023-05-17T12:37:50;14.30;;;7.25;;
22284;SDS011;11311;52.192;20.900;2023-05-17T12:40:19;9.45;;;6.35;;
22284;SDS011;11311;52.192;20.900;2023-05-17T12:42:49;12.68;;;7.13;;
22284;SDS011;11311;52.192;20.900;2023-05-17T12:45:19;13.35;;;7.82;;
22284;SDS011;11311;52.192;20.900;2023-05-17T12:47:49;9.57;;;7.78;;
22284;SDS011;11311;52.192;20.900;2023-05-17T12:50:23;11.05;;;6.95;;
22284;SDS011;11311;52.192;20.900;2023-05-17T12:52:53;12.82;;;7.47;;
22284;SDS011;11311;52.192;20.900;2023-05-17T12:55:22;11.23;;;7.80;;
22284;SDS011;11311;52.192;20.900;2023-05-17T12:57:51;21.70;;;8.50;;
22284;SDS011;11311;52.192;20.900;2023-05-17T13:00:23;11.93;;;8.35;;
22284;SDS011;11311;52.192;20.900;2023-05-17T13:02:53;18.88;;;9.07;;
22284;SDS011;11311;52.192;20.900;2023-05-17T13:05:22;14.57;;;8.88;;
22284;SDS011;11311;52.192;20.900;2023-05-17T13:07:52;12.63;;;8.00;;
22284;SDS011;11311;52.192;20.900;2023-05-17T13:10:21;14.63;;;8.05;;
22284;SDS011;11311;52.192;20.900;2023-05-17T13:12:55;15.05;;;8.30;;
22284;SDS011;11311;52.192;20.900;2023-05-17T13:15:29;18.05;;;8.35;;
22284;SDS011;11311;52.192;20.900;2023-05-17T13:17:59;14.60;;;8.60;;
22284;SDS011;11311;52.192;20.900;2023-05-17T13:20:28;13.82;;;8.23;;
22284;SDS011;11311;52.192;20.900;2023-05-17T13:22:57;16.63;;;9.25;;
22284;SDS011;11311;52.192;20.900;2023-05-17T13:25:26;17.05;;;9.27;;
22284;SDS011;11311;52.192;20.900;2023-05-17T13:27:55;12.90;;;8.18;;
22284;SDS011;11311;52.192;20.900;2023-05-17T13:30:24;11.55;;;8.85;;
22284;SDS011;11311;52.192;20.900;2023-05-17T13:32:55;18.10;;;8.98;;
22284;SDS011;11311;52.192;20.900;2023-05-17T13:35:24;12.15;;;8.82;;
22284;SDS011;11311;52.192;20.900;2023-05-17T13:37:53;15.73;;;8.65;;
22284;SDS011;11311;52.192;20.900;2023-05-17T13:40:23;12.60;;;8.23;;
22284;SDS011;11311;52.192;20.900;2023-05-17T13:42:53;15.88;;;8.88;;
22284;SDS011;11311;52.192;20.900;2023-05-17T13:45:22;14.77;;;9.25;;
22284;SDS011;11311;52.192;20.900;2023-05-17T13:47:51;12.52;;;8.32;;
22284;SDS011;11311;52.192;20.900;2023-05-17T13:50:21;13.48;;;8.23;;
22284;SDS011;11311;52.192;20.900;2023-05-17T13:52:52;21.67;;;9.10;;
22284;SDS011;11311;52.192;20.900;2023-05-17T13:55:21;14.23;;;8.13;;
22284;SDS011;11311;52.192;20.900;2023-05-17T13:57:50;14.73;;;8.80;;
22284;SDS011;11311;52.192;20.900;2023-05-17T14:00:19;15.15;;;7.55;;
22284;SDS011;11311;52.192;20.900;2023-05-17T14:02:48;11.80;;;7.57;;
22284;SDS011;11311;52.192;20.900;2023-05-17T14:05:17;13.32;;;7.00;;
22284;SDS011;11311;52.192;20.900;2023-05-17T14:07:47;14.50;;;7.72;;
22284;SDS011;11311;52.192;20.900;2023-05-17T14:10:17;13.65;;;6.97;;
22284;SDS011;11311;52.192;20.900;2023-05-17T14:12:46;12.15;;;7.97;;
22284;SDS011;11311;52.192;20.900;2023-05-17T14:15:15;12.93;;;6.78;;
22284;SDS011;11311;52.192;20.900;2023-05-17T14:17:44;13.88;;;8.23;;
22284;SDS011;11311;52.192;20.900;2023-05-17T14:20:14;12.73;;;7.45;;
22284;SDS011;11311;52.192;20.900;2023-05-17T14:22:43;13.50;;;7.13;;
22284;SDS011;11311;52.192;20.900;2023-05-17T14:25:13;11.00;;;7.57;;
22284;SDS011;11311;52.192;20.900;2023-05-17T14:27:42;14.43;;;8.05;;
22284;SDS011;11311;52.192;20.900;2023-05-17T14:30:12;16.60;;;7.60;;
22284;SDS011;11311;52.192;20.900;2023-05-17T14:32:41;10.45;;;6.90;;
22284;SDS011;11311;52.192;20.900;2023-05-17T14:35:10;10.18;;;6.85;;
22284;SDS011;11311;52.192;20.900;2023-05-17T14:37:39;18.90;;;7.45;;
22284;SDS011;11311;52.192;20.900;2023-05-17T14:40:09;11.45;;;7.07;;
22284;SDS011;11311;52.192;20.900;2023-05-17T14:42:40;13.25;;;8.75;;
22284;SDS011;11311;52.192;20.900;2023-05-17T14:45:09;11.43;;;6.22;;
22284;SDS011;11311;52.192;20.900;2023-05-17T14:47:38;14.02;;;8.27;;
22284;SDS011;11311;52.192;20.900;2023-05-17T14:50:08;11.82;;;7.10;;
22284;SDS011;11311;52.192;20.900;2023-05-17T14:52:37;18.48;;;5.78;;
22284;SDS011;11311;52.192;20.900;2023-05-17T14:55:08;9.65;;;5.10;;
22284;SDS011;11311;52.192;20.900;2023-05-17T14:57:39;12.55;;;5.95;;
22284;SDS011;11311;52.192;20.900;2023-05-17T15:02:37;13.07;;;6.43;;
22284;SDS011;11311;52.192;20.900;2023-05-17T15:05:07;16.23;;;5.57;;
22284;SDS011;11311;52.192;20.900;2023-05-17T15:07:36;9.32;;;5.72;;
22284;SDS011;11311;52.192;20.900;2023-05-17T15:10:06;10.70;;;5.78;;
22284;SDS011;11311;52.192;20.900;2023-05-17T15:12:36;15.23;;;7.05;;
22284;SDS011;11311;52.192;20.900;2023-05-17T15:15:07;13.20;;;5.93;;